F\v Tenia — FPMH — position and weather

sailwx.info

Track history (hours):
 
Tides and Currents Weather Stations Pressure Air Temp Water Temp Dewpoint Dewpoint Depression Visibility Wind Speed Wind Dir Waves Ship Positions

F\v Tenia

Last reported at 2014-Dec-13 19:19 UTC. Time now 2014-Dec-20 06:36 UTC.
Position N 44°16' W 002°03'.

Length 22 m; draft 4 m.

Type: Fishing. MMSI: 227575000.

Date/timePositionNaut miles runAvg speedWind from/ knotsBaromVisibWave heightAir tempDewpointWater temp
2014-Dec-13 19:19N 44°16' W 002°03'35 1.8
2014-Dec-13 00:11N 43°49' W 001°33'5 8.1
2014-Dec-12 23:31N 43°54' W 001°29'8 8.1
2014-Dec-12 22:33N 44°00' W 001°23'2 2.0
2014-Dec-12 21:33N 44°02' W 001°23'3 1.2
2014-Dec-12 19:24N 44°05' W 001°22'1 1.3
2014-Dec-12 18:33N 44°06' W 001°22'4 4.1
2014-Dec-12 17:33N 44°02' W 001°23'1 0.6
2014-Dec-12 16:27N 44°02' W 001°23'1 0.1
2014-Dec-12 06:04N 44°01' W 001°23'3 6.5
2014-Dec-12 05:33N 44°04' W 001°23'7 6.5
2014-Dec-12 04:30N 44°09' W 001°29'  
Track history (hours):
 
Tides and Currents Weather Stations Pressure Air Temp Water Temp Dewpoint Dewpoint Depression Visibility Wind Speed Wind Dir Waves Ship Positions

F\v Tenia

Last reported at 2014-Dec-13 19:19 UTC. Time now 2014-Dec-20 06:36 UTC.
Position N 44°16' W 002°03'.

Length 22 m; draft 4 m.

Type: Fishing. MMSI: 227575000.

Date/timePositionNaut miles runAvg speedWind from/ knotsBaromVisibWave heightAir tempDewpointWater temp
2014-Dec-13 19:19N 44°16' W 002°03'35 1.8
2014-Dec-13 00:11N 43°49' W 001°33'5 8.1
2014-Dec-12 23:31N 43°54' W 001°29'8 8.1
2014-Dec-12 22:33N 44°00' W 001°23'2 2.0
2014-Dec-12 21:33N 44°02' W 001°23'3 1.2
2014-Dec-12 19:24N 44°05' W 001°22'1 1.3
2014-Dec-12 18:33N 44°06' W 001°22'4 4.1
2014-Dec-12 17:33N 44°02' W 001°23'1 0.6
2014-Dec-12 16:27N 44°02' W 001°23'1 0.1
2014-Dec-12 06:04N 44°01' W 001°23'3 6.5
2014-Dec-12 05:33N 44°04' W 001°23'7 6.5
2014-Dec-12 04:30N 44°09' W 001°29'  

Dump ship's entire track history